createdAt,value
2023-01-30T00:00:53.008Z,21.83
2023-01-30T00:03:19.959Z,18.35
2023-01-30T00:05:46.449Z,18.27
2023-01-30T00:08:12.952Z,16.90
2023-01-30T00:10:39.380Z,21.70
2023-01-30T00:13:05.932Z,14.43
2023-01-30T00:15:32.342Z,13.93
2023-01-30T00:17:58.780Z,17.08
2023-01-30T00:20:25.256Z,17.30
2023-01-30T00:23:00.465Z,16.02
2023-01-30T00:25:27.834Z,15.45
2023-01-30T00:27:54.325Z,15.30
2023-01-30T00:30:20.775Z,15.07
2023-01-30T00:32:47.308Z,5.10
2023-01-30T00:35:13.707Z,9.50
2023-01-30T00:37:40.166Z,13.18
2023-01-30T00:40:06.896Z,8.95
2023-01-30T00:42:52.063Z,2.40
2023-01-30T00:45:36.860Z,5.00
2023-01-30T00:48:03.305Z,11.52
2023-01-30T00:50:42.310Z,12.52
2023-01-30T00:53:12.769Z,9.13
2023-01-30T00:55:39.657Z,23.00
2023-01-30T00:58:06.448Z,7.35
2023-01-30T01:00:33.120Z,13.75
2023-01-30T01:02:59.638Z,13.88
2023-01-30T01:05:26.653Z,14.48
2023-01-30T01:07:53.072Z,13.00
2023-01-30T01:10:19.550Z,20.95
2023-01-30T01:12:46.794Z,15.27
2023-01-30T01:15:13.929Z,14.32
2023-01-30T01:17:41.523Z,7.78
2023-01-30T01:20:08.981Z,14.10
2023-01-30T01:22:35.570Z,17.33
2023-01-30T01:25:02.002Z,14.48
2023-01-30T01:27:29.138Z,11.82
2023-01-30T01:29:55.536Z,14.80
2023-01-30T01:32:22.274Z,17.67
2023-01-30T01:34:48.747Z,16.40
2023-01-30T01:37:15.264Z,12.30
2023-01-30T01:39:59.976Z,17.25
2023-01-30T01:42:35.933Z,8.45
2023-01-30T01:45:13.199Z,11.68
2023-01-30T01:47:42.535Z,20.48
2023-01-30T01:50:16.589Z,13.65
2023-01-30T01:52:43.528Z,7.85
2023-01-30T01:55:09.962Z,14.52
2023-01-30T01:57:47.603Z,16.42
2023-01-30T02:00:17.087Z,11.82
2023-01-30T02:02:49.414Z,8.23
2023-01-30T02:05:16.700Z,19.60
2023-01-30T02:08:06.082Z,19.50
2023-01-30T02:10:47.659Z,12.68
2023-01-30T02:13:14.042Z,10.43
2023-01-30T02:15:42.774Z,11.77
2023-01-30T02:18:18.135Z,13.73
2023-01-30T02:21:22.403Z,16.55
2023-01-30T02:24:16.040Z,13.20
2023-01-30T02:27:03.665Z,7.88
2023-01-30T02:29:55.044Z,7.22
2023-01-30T02:32:46.411Z,13.75
2023-01-30T02:35:32.648Z,12.43
2023-01-30T02:38:22.244Z,15.63
2023-01-30T02:41:07.170Z,13.50
2023-01-30T02:43:44.790Z,12.80
2023-01-30T02:46:15.813Z,13.18
2023-01-30T02:49:06.839Z,10.32
2023-01-30T02:51:35.958Z,13.57
2023-01-30T02:54:02.647Z,9.55
2023-01-30T02:56:29.052Z,15.52
2023-01-30T02:58:59.721Z,12.25
2023-01-30T03:02:08.019Z,13.13
2023-01-30T03:04:53.331Z,16.73
2023-01-30T03:07:38.577Z,9.50
2023-01-30T03:10:37.358Z,11.88
2023-01-30T03:13:38.078Z,11.10
2023-01-30T03:16:40.528Z,11.15
2023-01-30T03:19:12.379Z,15.35
2023-01-30T03:21:44.485Z,10.07
2023-01-30T03:24:11.667Z,13.60
2023-01-30T03:26:45.871Z,13.00
2023-01-30T03:29:12.362Z,9.70
2023-01-30T03:31:38.753Z,16.27
2023-01-30T03:34:05.223Z,9.40
2023-01-30T03:36:31.611Z,15.23
2023-01-30T03:38:59.150Z,12.10
2023-01-30T03:41:25.615Z,11.77
2023-01-30T03:43:52.026Z,13.73
2023-01-30T03:46:18.351Z,13.15
2023-01-30T03:48:44.869Z,13.95
2023-01-30T03:51:11.246Z,17.80
2023-01-30T03:53:37.609Z,18.33
2023-01-30T03:56:04.257Z,11.60
2023-01-30T03:58:30.613Z,9.98
2023-01-30T04:00:59.964Z,14.27
2023-01-30T04:03:26.425Z,18.38
2023-01-30T04:05:52.869Z,17.40
2023-01-30T04:08:19.219Z,12.15
2023-01-30T04:10:45.578Z,20.42
2023-01-30T04:13:11.975Z,11.23
2023-01-30T04:15:38.308Z,11.85
2023-01-30T04:18:05.440Z,14.63
2023-01-30T04:20:31.831Z,12.23
2023-01-30T04:22:58.329Z,11.23
2023-01-30T04:25:24.735Z,13.55
2023-01-30T04:27:51.120Z,19.75
2023-01-30T04:30:17.800Z,21.58
2023-01-30T04:32:44.349Z,24.20
2023-01-30T04:35:10.921Z,14.80
2023-01-30T04:37:37.383Z,12.40
2023-01-30T04:40:04.180Z,12.45
2023-01-30T04:42:30.674Z,15.75
2023-01-30T04:44:57.157Z,14.93
2023-01-30T04:47:23.643Z,14.23
2023-01-30T04:49:49.992Z,10.90
2023-01-30T04:52:16.350Z,15.25
2023-01-30T04:54:42.712Z,26.73
2023-01-30T04:57:09.108Z,13.30
2023-01-30T04:59:35.468Z,6.82
2023-01-30T05:02:01.909Z,11.85
2023-01-30T05:04:28.547Z,18.92
2023-01-30T05:06:54.946Z,19.48
2023-01-30T05:09:21.370Z,10.45
2023-01-30T05:11:47.757Z,14.90
2023-01-30T05:14:14.164Z,20.63
2023-01-30T05:16:40.598Z,21.00
2023-01-30T05:19:06.994Z,15.57
2023-01-30T05:21:33.403Z,14.15
2023-01-30T05:23:59.836Z,9.48
2023-01-30T05:26:26.371Z,20.95
2023-01-30T05:28:56.691Z,21.80
2023-01-30T05:31:23.353Z,16.50
2023-01-30T05:33:51.900Z,11.55
2023-01-30T05:36:19.877Z,19.67
2023-01-30T05:38:46.460Z,17.23
2023-01-30T05:41:14.047Z,11.20
2023-01-30T05:43:40.723Z,13.18
2023-01-30T05:46:10.421Z,16.42
2023-01-30T05:48:37.026Z,14.50
2023-01-30T05:51:03.453Z,13.05
2023-01-30T05:53:34.405Z,19.15
2023-01-30T05:56:03.428Z,7.63
2023-01-30T05:58:30.343Z,14.57
2023-01-30T06:01:04.399Z,10.48
2023-01-30T06:03:30.868Z,10.80
2023-01-30T06:05:57.329Z,14.50
2023-01-30T06:08:23.856Z,6.93
2023-01-30T06:10:50.504Z,11.18
2023-01-30T06:13:17.020Z,12.38
2023-01-30T06:15:43.491Z,15.40
2023-01-30T06:18:12.258Z,6.00
2023-01-30T06:20:38.639Z,15.15
2023-01-30T06:23:05.014Z,11.82
2023-01-30T06:25:31.453Z,13.85
2023-01-30T06:27:57.906Z,7.30
2023-01-30T06:30:24.333Z,6.30
2023-01-30T06:32:51.530Z,14.45
2023-01-30T06:35:18.213Z,12.00
2023-01-30T06:37:45.607Z,15.02
2023-01-30T06:40:12.915Z,9.52
2023-01-30T06:42:39.246Z,11.60
2023-01-30T06:45:06.142Z,9.75
2023-01-30T06:47:32.717Z,11.48
2023-01-30T06:49:59.142Z,9.18
2023-01-30T06:52:25.625Z,5.80
2023-01-30T06:54:51.953Z,8.80
2023-01-30T06:57:18.365Z,13.15
2023-01-30T06:59:44.747Z,11.85
2023-01-30T07:02:13.042Z,8.20
2023-01-30T07:04:39.669Z,10.38
2023-01-30T07:07:07.137Z,14.10
2023-01-30T07:09:33.599Z,10.73
2023-01-30T07:11:59.970Z,11.55
2023-01-30T07:14:26.344Z,11.75
2023-01-30T07:16:52.777Z,9.45
2023-01-30T07:19:19.200Z,9.65
2023-01-30T07:21:45.631Z,14.73
2023-01-30T07:24:12.146Z,8.68
2023-01-30T07:26:38.565Z,6.32
2023-01-30T07:29:07.844Z,9.77
2023-01-30T07:31:34.232Z,7.07
2023-01-30T07:34:00.613Z,6.43
2023-01-30T07:36:27.042Z,12.48
2023-01-30T07:38:53.431Z,6.95
2023-01-30T07:41:19.964Z,12.18
2023-01-30T07:43:48.799Z,9.40
2023-01-30T07:46:15.189Z,14.90
2023-01-30T07:48:44.646Z,14.38
2023-01-30T07:51:10.998Z,8.45
2023-01-30T07:53:37.511Z,9.30
2023-01-30T07:56:10.876Z,11.38
2023-01-30T07:58:37.295Z,14.18
2023-01-30T08:01:03.718Z,11.80
2023-01-30T08:03:30.130Z,12.82
2023-01-30T08:05:56.723Z,13.90
2023-01-30T08:08:23.057Z,11.23
2023-01-30T08:10:49.548Z,8.95
2023-01-30T08:13:15.948Z,10.43
2023-01-30T08:15:42.383Z,15.32
2023-01-30T08:18:08.810Z,11.65
2023-01-30T08:20:36.149Z,8.57
2023-01-30T08:23:03.089Z,10.32
2023-01-30T08:25:29.635Z,13.85
2023-01-30T08:27:56.151Z,11.25
2023-01-30T08:30:22.996Z,14.07
2023-01-30T08:32:49.469Z,12.00
2023-01-30T08:35:15.921Z,4.38
2023-01-30T08:37:42.730Z,9.98
2023-01-30T08:40:09.869Z,7.20
2023-01-30T08:42:36.230Z,11.10
2023-01-30T08:45:02.666Z,7.70
2023-01-30T08:47:29.156Z,18.92
2023-01-30T08:49:55.651Z,8.80
2023-01-30T08:52:22.153Z,6.50
2023-01-30T08:54:48.702Z,10.15
2023-01-30T08:57:15.557Z,11.13
2023-01-30T08:59:41.949Z,12.05
2023-01-30T09:02:10.337Z,9.13
2023-01-30T09:04:36.744Z,11.85
2023-01-30T09:07:03.394Z,9.68
2023-01-30T09:09:29.943Z,6.30
2023-01-30T09:11:56.303Z,12.55
2023-01-30T09:14:23.003Z,10.23
2023-01-30T09:16:55.703Z,6.93
2023-01-30T09:19:23.603Z,10.77
2023-01-30T09:21:50.948Z,8.18
2023-01-30T09:24:17.446Z,6.82
2023-01-30T09:26:45.173Z,3.92
2023-01-30T09:29:15.104Z,6.68
2023-01-30T09:31:41.601Z,5.07
2023-01-30T09:34:08.017Z,6.22
2023-01-30T09:36:34.435Z,7.18
2023-01-30T09:39:00.893Z,4.22
2023-01-30T09:42:05.781Z,2.75
2023-01-30T09:44:58.024Z,5.15
2023-01-30T09:47:24.321Z,6.88
2023-01-30T09:50:06.424Z,4.07
2023-01-30T09:52:52.168Z,4.97
2023-01-30T09:55:21.493Z,2.85
2023-01-30T09:57:48.912Z,5.30
2023-01-30T10:00:23.373Z,1.70
2023-01-30T10:03:04.837Z,4.15
2023-01-30T10:05:50.415Z,2.25
2023-01-30T10:08:38.643Z,4.15
2023-01-30T10:11:38.744Z,2.95
2023-01-30T10:17:01.240Z,5.20
2023-01-30T10:19:39.513Z,3.45
2023-01-30T10:22:44.388Z,4.70
2023-01-30T10:25:32.887Z,2.08
2023-01-30T10:28:28.297Z,3.22
2023-01-30T10:31:18.790Z,2.72
2023-01-30T10:33:58.033Z,3.78
2023-01-30T10:36:35.388Z,4.13
2023-01-30T10:39:04.489Z,4.32
2023-01-30T10:41:42.582Z,3.58
2023-01-30T10:44:11.252Z,3.45
2023-01-30T10:46:48.718Z,3.13
2023-01-30T10:49:23.022Z,1.63
2023-01-30T10:52:18.913Z,2.80
2023-01-30T10:55:04.054Z,3.30
2023-01-30T10:57:33.388Z,2.92
2023-01-30T11:00:10.393Z,3.65
2023-01-30T11:03:05.983Z,2.60
2023-01-30T11:06:02.124Z,2.28
2023-01-30T11:08:35.850Z,2.92
2023-01-30T11:11:25.019Z,2.75
2023-01-30T11:13:51.530Z,2.67
2023-01-30T11:16:18.336Z,3.13
2023-01-30T11:21:44.081Z,1.85
2023-01-30T11:24:16.884Z,6.18
2023-01-30T11:26:47.733Z,1.65
2023-01-30T11:29:28.932Z,2.60
2023-01-30T11:31:56.042Z,3.00
2023-01-30T11:34:23.802Z,2.03
2023-01-30T11:36:50.715Z,1.27
2023-01-30T11:39:21.025Z,1.45
2023-01-30T11:41:53.432Z,3.00
2023-01-30T11:44:29.228Z,1.73
2023-01-30T11:47:02.670Z,2.25
2023-01-30T11:49:49.277Z,2.47
2023-01-30T11:52:19.307Z,4.55
2023-01-30T11:54:46.075Z,4.35
2023-01-30T11:57:17.231Z,2.05
2023-01-30T12:00:33.806Z,3.97
2023-01-30T12:03:05.191Z,2.00
2023-01-30T12:05:34.556Z,2.45
2023-01-30T12:08:17.486Z,1.60
2023-01-30T12:10:48.869Z,2.47
2023-01-30T12:13:32.077Z,1.60
2023-01-30T12:16:18.625Z,2.78
2023-01-30T12:19:05.474Z,2.30
2023-01-30T12:22:13.897Z,1.02
2023-01-30T12:24:59.120Z,1.35
2023-01-30T12:27:32.520Z,1.83
2023-01-30T12:30:19.252Z,1.83
2023-01-30T12:32:45.946Z,1.95
2023-01-30T12:35:17.709Z,1.30
2023-01-30T12:37:56.743Z,1.25
2023-01-30T12:40:30.302Z,1.88
2023-01-30T12:43:13.894Z,2.13
2023-01-30T12:46:02.299Z,0.93
2023-01-30T12:49:07.840Z,1.73
2023-01-30T12:51:42.404Z,1.25
2023-01-30T12:54:28.838Z,2.35
2023-01-30T12:57:22.605Z,1.35
2023-01-30T12:59:54.830Z,2.00
2023-01-30T13:02:36.629Z,2.85
2023-01-30T13:05:34.123Z,2.22
2023-01-30T13:08:18.618Z,2.85
2023-01-30T13:11:16.132Z,2.00
2023-01-30T13:13:53.423Z,3.60
2023-01-30T13:16:29.542Z,1.80
2023-01-30T13:19:06.737Z,2.47
2023-01-30T13:21:38.052Z,1.20
2023-01-30T13:24:35.864Z,2.45
2023-01-30T13:27:06.257Z,8.52
2023-01-30T13:29:37.768Z,3.70
2023-01-30T13:32:06.657Z,2.25
2023-01-30T13:34:39.827Z,2.05
2023-01-30T13:37:13.503Z,1.83
2023-01-30T13:39:45.052Z,5.85
2023-01-30T13:42:33.313Z,3.78
2023-01-30T13:45:00.487Z,3.22
2023-01-30T13:47:40.972Z,4.53
2023-01-30T13:50:26.999Z,4.85
2023-01-30T13:53:05.374Z,2.00
2023-01-30T13:55:57.047Z,4.68
2023-01-30T13:58:32.167Z,2.28
2023-01-30T14:00:58.672Z,5.68
2023-01-30T14:03:31.396Z,4.15
2023-01-30T14:06:01.061Z,2.50
2023-01-30T14:08:39.861Z,1.05
2023-01-30T14:11:28.967Z,2.85
2023-01-30T14:14:00.660Z,2.10
2023-01-30T14:16:40.475Z,3.88
2023-01-30T14:19:36.102Z,3.15
2023-01-30T14:22:19.134Z,5.20
2023-01-30T14:24:45.596Z,2.58
2023-01-30T14:27:27.353Z,2.75
2023-01-30T14:29:54.744Z,4.03
2023-01-30T14:32:22.288Z,2.63
2023-01-30T14:35:00.661Z,5.13
2023-01-30T14:37:41.614Z,5.95
2023-01-30T14:40:23.374Z,5.18
2023-01-30T14:43:11.689Z,9.98
2023-01-30T14:45:49.879Z,3.25
2023-01-30T14:48:20.996Z,2.72
2023-01-30T14:50:47.494Z,2.30
2023-01-30T14:53:14.420Z,3.42
2023-01-30T14:55:40.862Z,4.40
2023-01-30T14:58:15.359Z,5.50
2023-01-30T15:03:17.060Z,6.38
2023-01-30T15:05:44.672Z,4.47
2023-01-30T15:08:17.030Z,6.72
2023-01-30T15:10:49.409Z,5.15
2023-01-30T15:13:32.443Z,3.60
2023-01-30T15:16:31.142Z,3.58
2023-01-30T15:19:20.807Z,4.18
2023-01-30T15:21:53.196Z,4.50
2023-01-30T15:24:26.843Z,5.43
2023-01-30T15:27:14.963Z,4.55
2023-01-30T15:30:19.151Z,9.10
2023-01-30T15:32:45.713Z,14.13
2023-01-30T15:35:18.736Z,9.88
2023-01-30T15:37:53.060Z,6.45
2023-01-30T15:40:22.226Z,5.95
2023-01-30T15:43:00.624Z,4.53
2023-01-30T15:45:50.245Z,8.20
2023-01-30T15:48:37.614Z,7.75
2023-01-30T15:51:04.598Z,3.63
2023-01-30T15:53:36.414Z,3.70
2023-01-30T15:56:06.895Z,8.93
2023-01-30T15:58:36.447Z,9.05
2023-01-30T16:01:02.958Z,7.90
2023-01-30T16:03:36.554Z,3.95
2023-01-30T16:06:03.860Z,5.70
2023-01-30T16:08:33.138Z,14.25
2023-01-30T16:11:00.737Z,6.80
2023-01-30T16:13:28.474Z,12.63
2023-01-30T16:16:10.409Z,8.30
2023-01-30T16:18:39.105Z,8.15
2023-01-30T16:21:08.424Z,8.07
2023-01-30T16:23:54.551Z,5.10
2023-01-30T16:26:21.980Z,5.30
2023-01-30T16:28:49.798Z,9.50
2023-01-30T16:31:17.622Z,7.28
2023-01-30T16:33:53.424Z,6.15
2023-01-30T16:36:19.776Z,7.10
2023-01-30T16:38:47.403Z,5.55
2023-01-30T16:41:36.421Z,6.85
2023-01-30T16:44:11.854Z,6.22
2023-01-30T16:46:41.160Z,8.32
2023-01-30T16:49:16.910Z,4.13
2023-01-30T16:51:43.382Z,5.78
2023-01-30T16:54:21.714Z,5.75
2023-01-30T16:56:50.968Z,5.32
2023-01-30T16:59:21.138Z,11.05
2023-01-30T17:01:47.862Z,3.80
2023-01-30T17:04:21.269Z,5.68
2023-01-30T17:07:00.680Z,5.68
2023-01-30T17:09:35.567Z,3.53
2023-01-30T17:12:28.123Z,4.30
2023-01-30T17:15:09.748Z,4.85
2023-01-30T17:17:36.067Z,5.55
2023-01-30T17:20:02.625Z,5.47
2023-01-30T17:22:29.033Z,6.03
2023-01-30T17:24:59.436Z,6.65
2023-01-30T17:27:27.388Z,5.72
2023-01-30T17:29:53.845Z,15.98
2023-01-30T17:32:20.619Z,6.68
2023-01-30T17:34:47.443Z,6.50
2023-01-30T17:37:15.977Z,4.50
2023-01-30T17:39:42.364Z,8.32
2023-01-30T17:42:13.112Z,8.95
2023-01-30T17:44:40.197Z,8.00
2023-01-30T17:47:09.116Z,9.35
2023-01-30T17:49:35.441Z,8.00
2023-01-30T17:52:01.821Z,4.25
2023-01-30T17:54:30.065Z,12.38
2023-01-30T17:57:00.155Z,4.50
2023-01-30T17:59:26.939Z,9.27
2023-01-30T18:01:53.878Z,7.53
2023-01-30T18:04:20.933Z,8.90
2023-01-30T18:06:50.462Z,5.68
2023-01-30T18:09:19.397Z,3.00
2023-01-30T18:11:46.217Z,10.13
2023-01-30T18:14:12.596Z,8.63
2023-01-30T18:16:39.015Z,5.30
2023-01-30T18:19:08.558Z,5.10
2023-01-30T18:21:36.405Z,12.05
2023-01-30T18:24:02.846Z,5.82
2023-01-30T18:26:30.011Z,8.88
2023-01-30T18:28:56.874Z,3.55
2023-01-30T18:31:25.093Z,4.32
2023-01-30T18:33:52.328Z,13.45
2023-01-30T18:36:19.830Z,5.88
2023-01-30T18:38:46.418Z,5.15
2023-01-30T18:41:15.437Z,4.57
2023-01-30T18:43:42.642Z,8.35
2023-01-30T18:46:14.743Z,7.38
2023-01-30T18:48:41.780Z,11.48
2023-01-30T18:51:22.665Z,4.07
2023-01-30T18:56:21.377Z,7.28
2023-01-30T18:58:52.336Z,7.57
2023-01-30T19:01:21.071Z,9.95
2023-01-30T19:03:47.687Z,8.45
2023-01-30T19:06:15.441Z,10.90
2023-01-30T19:08:42.028Z,11.77
2023-01-30T19:11:29.419Z,10.85
2023-01-30T19:13:56.193Z,14.45
2023-01-30T19:16:24.501Z,10.20
2023-01-30T19:18:51.128Z,10.57
2023-01-30T19:21:17.773Z,8.95
2023-01-30T19:23:44.557Z,10.98
2023-01-30T19:26:10.965Z,5.38
2023-01-30T19:28:37.957Z,2.13
2023-01-30T19:31:09.240Z,8.05
2023-01-30T19:33:36.175Z,7.35
2023-01-30T19:36:12.878Z,11.43
2023-01-30T19:38:39.990Z,10.82
2023-01-30T19:41:14.219Z,8.05
2023-01-30T19:43:41.599Z,6.25
2023-01-30T19:46:08.615Z,7.75
2023-01-30T19:48:35.101Z,12.65
2023-01-30T19:51:35.830Z,10.32
2023-01-30T19:54:04.956Z,7.90
2023-01-30T19:56:32.153Z,6.35
2023-01-30T19:59:00.205Z,5.32
2023-01-30T20:03:56.413Z,5.53
2023-01-30T20:06:27.819Z,6.45
2023-01-30T20:08:58.180Z,6.18
2023-01-30T20:11:24.700Z,8.85
2023-01-30T20:13:51.547Z,3.97
2023-01-30T20:16:20.533Z,4.60
2023-01-30T20:18:48.316Z,7.22
2023-01-30T20:21:19.100Z,2.22
2023-01-30T20:23:46.811Z,9.55
2023-01-30T20:26:16.657Z,5.30
2023-01-30T20:28:43.494Z,4.18
2023-01-30T20:31:15.722Z,7.13
2023-01-30T20:33:42.668Z,8.35
2023-01-30T20:36:11.434Z,6.60
2023-01-30T20:38:39.416Z,1.60
2023-01-30T20:41:11.237Z,5.68
2023-01-30T20:43:39.687Z,3.95
2023-01-30T20:46:11.908Z,6.10
2023-01-30T20:48:38.643Z,4.72
2023-01-30T20:51:10.034Z,5.03
2023-01-30T20:53:37.232Z,5.05
2023-01-30T20:56:04.787Z,7.00
2023-01-30T20:58:31.465Z,5.70
2023-01-30T21:01:18.021Z,6.82
2023-01-30T21:03:47.836Z,6.22
2023-01-30T21:06:14.280Z,4.00
2023-01-30T21:09:01.194Z,4.32
2023-01-30T21:11:27.784Z,6.20
2023-01-30T21:13:54.244Z,8.35
2023-01-30T21:16:26.428Z,5.60
2023-01-30T21:18:55.087Z,8.48
2023-01-30T21:21:33.157Z,10.43
2023-01-30T21:24:02.899Z,4.60
2023-01-30T21:26:30.770Z,5.25
2023-01-30T21:28:57.713Z,6.82
2023-01-30T21:31:26.650Z,8.68
2023-01-30T21:33:56.039Z,5.65
2023-01-30T21:36:22.541Z,5.03
2023-01-30T21:39:07.380Z,2.83
2023-01-30T21:41:45.675Z,2.92
2023-01-30T21:44:13.089Z,1.95
2023-01-30T21:46:45.248Z,7.38
2023-01-30T21:49:12.131Z,7.78
2023-01-30T21:51:41.655Z,3.85
2023-01-30T21:54:08.296Z,8.40
2023-01-30T21:56:34.887Z,3.53
2023-01-30T21:59:02.636Z,9.60
2023-01-30T22:01:29.968Z,7.97
2023-01-30T22:03:59.237Z,6.57
2023-01-30T22:06:25.693Z,4.07
2023-01-30T22:08:56.287Z,6.47
2023-01-30T22:11:22.719Z,6.35
2023-01-30T22:13:49.340Z,6.65
2023-01-30T22:16:18.023Z,6.00
2023-01-30T22:18:47.293Z,11.95
2023-01-30T22:21:15.707Z,6.38
2023-01-30T22:23:44.606Z,2.45
2023-01-30T22:26:12.877Z,6.32
2023-01-30T22:28:39.704Z,5.47
2023-01-30T22:31:08.148Z,4.82
2023-01-30T22:33:35.023Z,2.90
2023-01-30T22:36:03.282Z,11.82
2023-01-30T22:38:29.751Z,2.92
2023-01-30T22:41:11.652Z,6.75
2023-01-30T22:43:38.346Z,5.85
2023-01-30T22:46:07.063Z,5.18
2023-01-30T22:48:34.432Z,3.45
2023-01-30T22:51:13.128Z,5.15
2023-01-30T22:53:42.156Z,5.50
2023-01-30T22:56:10.999Z,4.97
2023-01-30T22:58:38.170Z,8.70
2023-01-30T23:01:12.092Z,8.70
2023-01-30T23:03:39.435Z,6.38
2023-01-30T23:06:07.759Z,3.20
2023-01-30T23:08:38.143Z,15.63
2023-01-30T23:11:13.455Z,4.63
2023-01-30T23:13:44.671Z,11.85
2023-01-30T23:16:12.184Z,4.53
2023-01-30T23:18:57.187Z,4.15
2023-01-30T23:21:37.058Z,8.90
2023-01-30T23:24:09.486Z,5.43
2023-01-30T23:26:38.215Z,4.85
2023-01-30T23:29:07.644Z,5.47
2023-01-30T23:31:34.707Z,8.20
2023-01-30T23:34:03.932Z,5.05
2023-01-30T23:36:30.481Z,13.57
2023-01-30T23:38:58.719Z,15.43
2023-01-30T23:41:27.420Z,3.10
2023-01-30T23:43:54.237Z,4.07
2023-01-30T23:46:25.310Z,3.65
2023-01-30T23:48:57.040Z,8.20
2023-01-30T23:51:26.686Z,6.38
2023-01-30T23:53:53.480Z,7.30
2023-01-30T23:56:21.951Z,12.20
2023-01-30T23:58:49.822Z,6.65
